Time;durP1;ratioP1;P1;durP2;ratioP2;P2;SDS_P1;SDS_P2;PMS_P1;PMS_P2;Temp;Humidity;BMP_temperature;BMP_pressure;BME280_temperature;BME280_humidity;BME280_pressure;Samples;Min_cycle;Max_cycle;Signal;HPM_P1;HPM_P2
2022/04/20 00:02:09;;;;;;;9.03;4.77;;;10.90;52.50;;;;;;5014884;28;20458;-55
2022/04/20 00:04:36;;;;;;;6.00;4.10;;;10.90;52.70;;;;;;5015475;28;20447;-55
2022/04/20 00:07:05;;;;;;;7.90;5.00;;;10.80;53.10;;;;;;5014826;28;20459;-55
2022/04/20 00:09:32;;;;;;;6.10;4.80;;;10.70;53.20;;;;;;5015017;28;20548;-55
2022/04/20 00:11:59;;;;;;;5.90;5.40;;;10.70;53.50;;;;;;5014800;28;20941;-55
2022/04/20 00:14:27;;;;;;;6.63;5.33;;;10.60;53.60;;;;;;5015061;28;20805;-55
2022/04/20 00:16:54;;;;;;;8.10;4.53;;;10.60;53.90;;;;;;5014933;28;20451;-55
2022/04/20 00:19:21;;;;;;;4.47;4.10;;;10.70;54.00;;;;;;5014552;28;20463;-55
2022/04/20 00:21:48;;;;;;;5.10;4.60;;;10.60;54.30;;;;;;5014641;28;20526;-55
2022/04/20 00:24:16;;;;;;;4.90;4.50;;;10.60;54.60;;;;;;5014774;28;20473;-55
2022/04/20 00:26:43;;;;;;;7.90;6.40;;;10.60;55.20;;;;;;5014832;28;20801;-55
2022/04/20 00:29:10;;;;;;;5.90;4.80;;;10.50;55.30;;;;;;5014590;28;20497;-55
2022/04/20 00:31:38;;;;;;;6.63;5.33;;;10.60;55.40;;;;;;5014395;28;20494;-55
2022/04/20 00:34:05;;;;;;;5.80;5.33;;;10.40;55.50;;;;;;5014316;28;20458;-55
2022/04/20 00:36:32;;;;;;;6.10;5.60;;;10.50;56.00;;;;;;5014695;28;20466;-55
2022/04/20 00:38:59;;;;;;;8.33;5.77;;;10.40;56.00;;;;;;5014497;28;20474;-54
2022/04/20 00:41:29;;;;;;;6.93;5.77;;;10.40;56.40;;;;;;5014488;28;20447;-55
2022/04/20 00:43:56;;;;;;;6.53;6.03;;;10.30;56.40;;;;;;5014548;28;20454;-55
2022/04/20 00:46:25;;;;;;;11.40;6.83;;;10.30;56.40;;;;;;5013748;28;20478;-55
2022/04/20 00:48:53;;;;;;;8.50;5.73;;;10.30;56.70;;;;;;5014233;28;20855;-55
2022/04/20 00:51:20;;;;;;;6.13;5.10;;;10.20;56.70;;;;;;5014187;28;20777;-55
2022/04/20 00:53:48;;;;;;;6.30;5.80;;;10.10;57.00;;;;;;5014201;28;20469;-55
2022/04/20 00:56:15;;;;;;;5.73;5.23;;;10.00;57.10;;;;;;5013999;28;20450;-55
2022/04/20 00:58:44;;;;;;;5.53;5.13;;;10.10;57.20;;;;;;5014138;28;20459;-55
2022/04/20 01:01:11;;;;;;;7.20;5.63;;;10.10;57.20;;;;;;5014228;28;20470;-55
2022/04/20 01:03:38;;;;;;;6.83;5.50;;;10.10;57.40;;;;;;5014155;28;20451;-55
2022/04/20 01:06:08;;;;;;;6.47;5.87;;;10.10;57.40;;;;;;5014165;28;20466;-55
2022/04/20 01:08:35;;;;;;;9.00;5.40;;;10.00;57.60;;;;;;5014295;28;20487;-55
2022/04/20 01:11:02;;;;;;;5.80;5.17;;;10.10;57.70;;;;;;5014008;28;20892;-55
2022/04/20 01:13:30;;;;;;;5.30;4.80;;;10.10;58.20;;;;;;5013983;28;20453;-55
2022/04/20 01:15:59;;;;;;;6.13;5.53;;;10.00;57.90;;;;;;5014079;28;20447;-55
2022/04/20 01:18:26;;;;;;;5.50;5.10;;;9.90;59.00;;;;;;5013561;28;20467;-55
2022/04/20 01:20:54;;;;;;;5.83;5.33;;;9.90;59.00;;;;;;5013683;28;20781;-55
2022/04/20 01:23:21;;;;;;;5.30;4.80;;;9.80;58.90;;;;;;5014008;28;20451;-55
2022/04/20 01:25:48;;;;;;;6.67;5.33;;;9.70;58.90;;;;;;5013426;28;20465;-55
2022/04/20 01:28:17;;;;;;;5.47;5.07;;;9.70;59.30;;;;;;5013701;28;20475;-55
2022/04/20 01:30:44;;;;;;;7.10;5.40;;;9.70;59.40;;;;;;5013577;28;20491;-55
2022/04/20 01:33:11;;;;;;;10.33;5.30;;;9.60;59.20;;;;;;5013335;28;20478;-55
2022/04/20 01:35:38;;;;;;;6.93;5.40;;;9.60;59.60;;;;;;5013436;28;20455;-55
2022/04/20 01:38:07;;;;;;;5.27;4.77;;;9.50;59.90;;;;;;5013722;28;20478;-55
2022/04/20 01:40:35;;;;;;;6.17;5.60;;;9.40;60.30;;;;;;5013739;28;20475;-55
2022/04/20 01:43:02;;;;;;;6.73;5.40;;;9.40;60.10;;;;;;5013366;28;20968;-55
2022/04/20 01:45:29;;;;;;;7.37;5.63;;;9.40;60.90;;;;;;5013733;28;20447;-55
2022/04/20 01:47:57;;;;;;;6.40;5.80;;;9.30;61.20;;;;;;5013631;28;20466;-55
2022/04/20 01:50:24;;;;;;;6.07;5.57;;;9.30;61.50;;;;;;5013366;28;20483;-55
2022/04/20 01:52:51;;;;;;;5.03;4.53;;;9.20;62.10;;;;;;5013658;28;20806;-55
2022/04/20 01:55:20;;;;;;;5.70;5.20;;;9.20;62.10;;;;;;5013602;28;20462;-55
2022/04/20 01:57:47;;;;;;;5.87;5.23;;;9.20;62.80;;;;;;5014807;28;20477;-55
2022/04/20 02:00:16;;;;;;;6.00;5.40;;;9.10;63.40;;;;;;5017549;28;20828;-55
2022/04/20 02:02:42;;;;;;;5.70;5.20;;;9.00;63.80;;;;;;5017250;28;20450;-55
2022/04/20 02:05:11;;;;;;;5.30;4.73;;;9.00;64.50;;;;;;5017451;28;20850;-55
2022/04/20 02:07:39;;;;;;;5.50;5.00;;;8.90;63.90;;;;;;5016979;28;20467;-55
2022/04/20 02:10:07;;;;;;;5.80;5.30;;;8.90;65.00;;;;;;5017311;28;20581;-55
2022/04/20 02:12:36;;;;;;;6.30;5.73;;;8.90;65.40;;;;;;5017299;28;20874;-55
2022/04/20 02:15:03;;;;;;;5.83;5.07;;;8.80;65.50;;;;;;5016940;28;20950;-55
2022/04/20 02:17:30;;;;;;;7.10;6.10;;;8.70;65.80;;;;;;5017183;28;20467;-55
2022/04/20 02:19:59;;;;;;;6.93;5.53;;;8.70;66.40;;;;;;5017163;28;20443;-55
2022/04/20 02:22:31;;;;;;;5.17;4.63;;;8.60;66.80;;;;;;5016795;28;20941;-55
2022/04/20 02:24:59;;;;;;;6.13;4.83;;;8.60;67.40;;;;;;5016895;28;20466;-55
2022/04/20 02:27:27;;;;;;;5.70;5.20;;;8.60;68.10;;;;;;5016773;28;20432;-55
2022/04/20 02:29:55;;;;;;;6.47;5.73;;;8.70;68.80;;;;;;5016561;28;20482;-55
2022/04/20 02:32:23;;;;;;;5.60;5.10;;;8.60;68.40;;;;;;5016487;28;21043;-54
2022/04/20 02:34:50;;;;;;;6.53;5.57;;;8.60;69.00;;;;;;5016670;28;20457;-55
2022/04/20 02:37:17;;;;;;;7.53;6.00;;;8.60;68.50;;;;;;5016427;28;20461;-55
2022/04/20 02:39:47;;;;;;;6.43;5.90;;;8.60;69.60;;;;;;5015542;28;20454;-55
2022/04/20 02:42:14;;;;;;;5.97;5.47;;;8.60;69.50;;;;;;5016495;28;20451;-55
2022/04/20 02:44:41;;;;;;;6.30;5.10;;;8.60;70.00;;;;;;5016700;28;20888;-55
2022/04/20 02:47:10;;;;;;;6.60;6.00;;;8.60;70.70;;;;;;5016523;28;20469;-55
2022/04/20 02:49:37;;;;;;;5.57;5.10;;;8.60;70.40;;;;;;5016609;28;20489;-55
2022/04/20 02:52:06;;;;;;;5.63;5.10;;;8.60;70.30;;;;;;5016261;28;20451;-55
2022/04/20 02:54:33;;;;;;;6.10;5.50;;;8.50;71.10;;;;;;5016157;28;20491;-55
2022/04/20 02:57:00;;;;;;;8.53;6.80;;;8.60;72.10;;;;;;5016176;28;20462;-55
2022/04/20 02:59:27;;;;;;;7.07;6.17;;;8.60;71.90;;;;;;5016351;28;20498;-55
2022/04/20 03:01:55;;;;;;;6.20;5.70;;;8.60;72.20;;;;;;5016325;28;20450;-55
2022/04/20 03:04:24;;;;;;;9.60;5.40;;;8.50;72.60;;;;;;5016368;28;20480;-55
2022/04/20 03:06:51;;;;;;;5.83;5.23;;;8.50;72.50;;;;;;5016373;28;20443;-55
2022/04/20 03:09:18;;;;;;;5.73;5.13;;;8.40;73.60;;;;;;5015053;28;20482;-55
2022/04/20 03:11:45;;;;;;;6.93;6.17;;;8.40;74.00;;;;;;5016188;28;20534;-55
2022/04/20 03:14:13;;;;;;;6.73;6.10;;;8.30;74.40;;;;;;5015935;28;20451;-55
2022/04/20 03:16:40;;;;;;;6.07;5.57;;;8.30;74.60;;;;;;5015762;28;20450;-55
2022/04/20 03:19:07;;;;;;;7.60;6.47;;;8.30;75.80;;;;;;5015650;28;20555;-55
2022/04/20 03:21:36;;;;;;;6.13;5.53;;;8.30;76.30;;;;;;5015765;28;20542;-55
2022/04/20 03:24:03;;;;;;;6.00;5.40;;;8.30;75.30;;;;;;5015660;28;20506;-55
2022/04/20 03:26:30;;;;;;;6.07;5.33;;;8.20;76.40;;;;;;5015978;28;20537;-55
2022/04/20 03:28:57;;;;;;;6.90;5.70;;;8.10;76.10;;;;;;5015718;28;20471;-55
2022/04/20 03:31:24;;;;;;;6.90;5.67;;;8.00;77.80;;;;;;5015557;28;20447;-55
2022/04/20 03:33:52;;;;;;;6.77;6.13;;;8.00;77.60;;;;;;5015504;28;20439;-55
2022/04/20 03:36:19;;;;;;;6.10;5.60;;;8.00;78.30;;;;;;5015786;28;20447;-55
2022/04/20 03:38:48;;;;;;;6.27;5.70;;;8.00;78.70;;;;;;5015289;28;20470;-55
2022/04/20 03:41:15;;;;;;;6.93;6.17;;;8.00;77.70;;;;;;5015622;28;20447;-55
2022/04/20 03:43:42;;;;;;;6.73;6.10;;;8.00;78.60;;;;;;5015652;28;20447;-55
2022/04/20 03:46:11;;;;;;;5.23;4.83;;;8.00;79.50;;;;;;5015466;28;20454;-54
2022/04/20 03:48:38;;;;;;;7.57;6.10;;;8.00;79.90;;;;;;5015417;28;20525;-55
2022/04/20 03:51:05;;;;;;;6.93;5.83;;;7.90;79.50;;;;;;5015457;28;20493;-55
2022/04/20 03:53:32;;;;;;;6.83;6.00;;;8.00;80.90;;;;;;5015179;28;20458;-55
2022/04/20 03:56:01;;;;;;;10.43;5.50;;;8.00;81.00;;;;;;5015372;28;20465;-55
2022/04/20 03:58:28;;;;;;;6.10;5.50;;;8.00;81.30;;;;;;5015164;28;20486;-55
2022/04/20 04:00:55;;;;;;;6.50;5.17;;;8.10;81.70;;;;;;5015368;28;20510;-55
2022/04/20 04:03:23;;;;;;;7.57;5.60;;;8.10;81.60;;;;;;5014914;28;20451;-55
2022/04/20 04:05:50;;;;;;;9.03;5.57;;;8.10;82.10;;;;;;5014857;28;20447;-55
2022/04/20 04:08:17;;;;;;;6.70;5.27;;;8.20;82.80;;;;;;5014828;28;20486;-55
2022/04/20 04:10:44;;;;;;;6.37;5.73;;;8.20;81.80;;;;;;5014950;28;20597;-55
2022/04/20 04:13:12;;;;;;;5.77;5.37;;;8.30;81.50;;;;;;5014713;28;20441;-55
2022/04/20 04:15:39;;;;;;;6.47;5.87;;;8.10;81.00;;;;;;5014996;28;20447;-54
2022/04/20 04:18:07;;;;;;;6.70;6.10;;;;;;;;;;5014539;28;20471;-55
2022/04/20 04:20:34;;;;;;;5.53;5.03;;;7.70;82.70;;;;;;5013911;28;20444;-54
2022/04/20 04:23:01;;;;;;;5.80;5.30;;;7.50;83.70;;;;;;5014745;28;20501;-55
2022/04/20 04:25:29;;;;;;;8.73;6.10;;;7.50;83.90;;;;;;5014517;28;20501;-55
2022/04/20 04:27:56;;;;;;;6.20;5.60;;;7.50;84.40;;;;;;5014375;28;20467;-55
2022/04/20 04:30:26;;;;;;;6.10;5.03;;;7.60;84.20;;;;;;5014669;28;20537;-55
2022/04/20 04:32:53;;;;;;;6.73;5.10;;;7.50;83.60;;;;;;5014244;28;20565;-55
2022/04/20 04:35:20;;;;;;;6.83;6.23;;;7.50;84.00;;;;;;5014620;28;20455;-56
2022/04/20 04:37:50;;;;;;;6.10;5.30;;;7.50;83.60;;;;;;5014270;28;20993;-55
2022/04/20 04:40:18;;;;;;;6.17;5.67;;;7.60;84.90;;;;;;5014443;28;20508;-54
2022/04/20 04:42:46;;;;;;;6.97;5.63;;;7.60;85.30;;;;;;5014450;28;20473;-55
2022/04/20 04:50:49;;;;;;;6.77;5.47;;;7.50;84.80;;;;;;5014061;28;20824;-54
2022/04/20 04:53:16;;;;;;;5.83;5.33;;;7.30;85.10;;;;;;5014432;28;20466;-56
2022/04/20 04:55:43;;;;;;;11.43;5.33;;;7.30;86.50;;;;;;5014284;28;20455;-56
2022/04/20 04:58:10;;;;;;;5.70;5.20;;;7.30;86.10;;;;;;5013838;28;20471;-56
2022/04/20 05:00:37;;;;;;;6.13;5.60;;;7.30;87.50;;;;;;5014142;28;20449;-56
2022/04/20 05:03:06;;;;;;;5.30;4.90;;;7.40;85.80;;;;;;5014060;28;20450;-56
2022/04/20 05:05:33;;;;;;;5.67;5.27;;;7.50;87.20;;;;;;5013964;28;20526;-56
2022/04/20 05:08:00;;;;;;;5.80;5.40;;;7.60;86.90;;;;;;5014011;28;20851;-56
2022/04/20 05:10:27;;;;;;;7.50;6.80;;;7.60;85.80;;;;;;5013996;28;20482;-57
2022/04/20 05:12:55;;;;;;;6.90;6.30;;;7.50;87.40;;;;;;5013872;28;20483;-56
2022/04/20 05:15:22;;;;;;;7.20;6.60;;;7.50;87.70;;;;;;5014028;28;20447;-54
2022/04/20 05:17:50;;;;;;;7.10;5.20;;;7.50;88.20;;;;;;5013855;28;20509;-54
2022/04/20 05:20:20;;;;;;;6.13;5.63;;;7.60;88.50;;;;;;5013472;28;20451;-54
2022/04/20 05:22:47;;;;;;;6.97;5.67;;;7.60;86.20;;;;;;5013863;28;20451;-54
2022/04/20 05:25:14;;;;;;;5.67;5.10;;;7.60;86.50;;;;;;5013828;28;20542;-55
2022/04/20 05:27:41;;;;;;;6.10;5.37;;;7.50;85.00;;;;;;5013758;28;20471;-55
2022/04/20 05:30:11;;;;;;;6.90;6.30;;;7.50;88.70;;;;;;5013397;28;20479;-54
2022/04/20 05:32:38;;;;;;;6.13;5.53;;;7.70;89.30;;;;;;5013073;28;20474;-54
2022/04/20 05:35:06;;;;;;;6.27;5.70;;;7.70;88.10;;;;;;5013599;28;20550;-54
2022/04/20 05:43:03;;;;;;;6.00;5.50;;;7.40;87.30;;;;;;5013428;28;20940;-55
2022/04/20 05:45:30;;;;;;;6.23;5.63;;;7.50;89.20;;;;;;5013425;28;20451;-55
2022/04/20 05:47:58;;;;;;;6.73;6.13;;;7.50;89.70;;;;;;5013070;28;20470;-55
2022/04/20 05:50:25;;;;;;;6.00;5.60;;;7.60;88.00;;;;;;5013232;28;20479;-55
2022/04/20 05:52:54;;;;;;;6.97;6.27;;;7.70;87.40;;;;;;5013586;28;20478;-55
2022/04/20 05:55:21;;;;;;;6.23;5.77;;;;;;;;;;5013260;28;20463;-55
2022/04/20 05:57:48;;;;;;;6.67;6.17;;;7.90;84.90;;;;;;5013373;28;20471;-55
2022/04/20 06:00:16;;;;;;;12.50;6.23;;;7.90;87.10;;;;;;5013342;28;20485;-55
2022/04/20 06:02:44;;;;;;;6.10;5.50;;;7.80;86.00;;;;;;5012905;28;20451;-55
2022/04/20 06:05:11;;;;;;;6.60;6.00;;;7.70;87.20;;;;;;5013119;28;20482;-55
2022/04/20 06:07:39;;;;;;;6.20;5.20;;;7.60;85.80;;;;;;5013500;28;20473;-55
2022/04/20 06:10:09;;;;;;;5.77;5.10;;;7.60;85.10;;;;;;5013678;28;20509;-55
2022/04/20 06:12:37;;;;;;;6.93;6.00;;;7.70;85.70;;;;;;5013073;28;20431;-55
2022/04/20 06:15:06;;;;;;;5.90;5.37;;;7.80;85.00;;;;;;5013257;28;20525;-55
2022/04/20 06:17:33;;;;;;;7.63;5.70;;;7.80;85.90;;;;;;5013308;28;20467;-55
2022/04/20 06:20:00;;;;;;;11.40;6.70;;;7.90;85.00;;;;;;5013111;28;20770;-55
2022/04/20 06:22:27;;;;;;;6.03;5.40;;;7.90;85.00;;;;;;5012743;28;20447;-55
2022/04/20 06:24:55;;;;;;;4.90;4.43;;;7.90;83.20;;;;;;5012710;28;20447;-55
2022/04/20 06:27:29;;;;;;;5.63;5.00;;;7.80;84.50;;;;;;5013105;28;20793;-55
2022/04/20 06:29:56;;;;;;;7.83;5.57;;;7.80;84.90;;;;;;5012929;28;20426;-55
2022/04/20 06:32:24;;;;;;;5.43;4.93;;;7.90;84.10;;;;;;5012660;28;20490;-55
2022/04/20 06:34:51;;;;;;;4.90;4.50;;;7.90;83.80;;;;;;5012785;28;20538;-55
2022/04/20 06:37:19;;;;;;;6.50;5.90;;;7.90;83.90;;;;;;5012706;28;20460;-55
2022/04/20 06:39:46;;;;;;;6.07;5.33;;;8.10;86.20;;;;;;5013138;28;20450;-55
2022/04/20 06:42:13;;;;;;;7.10;5.40;;;8.10;82.80;;;;;;5012909;28;20533;-55
2022/04/20 06:44:42;;;;;;;5.80;5.17;;;8.10;82.10;;;;;;5014277;28;20443;-55
2022/04/20 06:47:09;;;;;;;5.73;5.23;;;8.10;82.00;;;;;;5016635;28;20447;-55
2022/04/20 06:49:36;;;;;;;5.97;4.73;;;8.20;81.60;;;;;;5016514;28;20537;-55
2022/04/20 07:00:19;;;;;;;8.37;5.60;;;8.50;82.50;;;;;;4996183;28;20403;-54
2022/04/20 07:02:46;;;;;;;5.20;4.90;;;8.40;81.40;;;;;;5003019;28;20475;-55
2022/04/20 07:05:14;;;;;;;6.67;6.07;;;8.30;80.00;;;;;;5012076;28;20475;-54
2022/04/20 07:07:41;;;;;;;6.27;5.67;;;8.30;80.00;;;;;;5015850;28;20471;-58
2022/04/20 07:10:08;;;;;;;3.80;3.50;;;8.40;79.60;;;;;;5011835;28;20510;-55
2022/04/20 07:12:36;;;;;;;5.23;3.20;;;10.00;83.40;;;;;;4996349;28;20518;-53
2022/04/20 07:15:03;;;;;;;4.80;4.40;;;12.80;75.80;;;;;;4996318;28;20455;-56
2022/04/20 07:17:32;;;;;;;4.50;4.10;;;13.20;66.10;;;;;;4996012;28;20479;-55
2022/04/20 07:20:00;;;;;;;14.00;3.73;;;14.00;65.00;;;;;;4997457;28;20458;-56
2022/04/20 07:22:27;;;;;;;5.43;4.93;;;14.60;60.70;;;;;;5015425;28;20455;-58
2022/04/20 07:24:54;;;;;;;5.47;4.70;;;13.80;60.20;;;;;;4999556;28;20448;-55
2022/04/20 07:27:21;;;;;;;8.97;4.30;;;13.70;60.30;;;;;;4995546;28;20432;-56
2022/04/20 07:29:49;;;;;;;4.67;4.20;;;13.00;61.10;;;;;;4993934;28;20454;-57
2022/04/20 07:32:16;;;;;;;4.27;3.87;;;13.80;60.70;;;;;;4994953;28;20666;-55
2022/04/20 07:34:45;;;;;;;3.57;3.27;;;13.70;59.10;;;;;;4995584;28;20556;-56
2022/04/20 07:37:12;;;;;;;5.57;3.50;;;14.60;59.00;;;;;;4994509;28;20452;-59
2022/04/20 07:39:43;;;;;;;5.03;4.43;;;15.80;57.80;;;;;;5001469;28;20459;-56
2022/04/20 07:42:11;;;;;;;7.33;5.43;;;15.10;57.30;;;;;;4995649;28;20451;-55
2022/04/20 07:44:39;;;;;;;4.43;4.13;;;13.80;57.20;;;;;;4995221;28;20456;-56
2022/04/20 07:47:10;;;;;;;4.93;4.43;;;13.50;58.10;;;;;;4995327;28;20616;-57
2022/04/20 07:52:25;;;;;;;4.30;3.63;;;14.30;57.80;;;;;;4995292;28;20467;-57
2022/04/20 07:54:52;;;;;;;7.33;5.67;;;14.70;57.10;;;;;;4997840;28;20444;-50
2022/04/20 07:57:19;;;;;;;4.50;3.90;;;14.60;57.50;;;;;;5012608;28;20805;-56
2022/04/20 07:59:46;;;;;;;5.70;4.43;;;15.10;57.70;;;;;;5014942;28;20455;-59
2022/04/20 08:02:13;;;;;;;5.77;5.17;;;13.60;57.00;;;;;;5009376;28;20449;-57
2022/04/20 08:04:40;;;;;;;5.33;4.80;;;13.10;57.90;;;;;;4994776;28;20448;-58
2022/04/20 08:07:08;;;;;;;5.30;4.23;;;12.60;58.40;;;;;;5001300;28;20458;-58
2022/04/20 08:09:37;;;;;;;7.33;4.30;;;12.60;58.90;;;;;;4999777;28;20459;-58
2022/04/20 08:12:04;;;;;;;5.30;4.80;;;13.00;59.20;;;;;;5009525;28;20565;-54
2022/04/20 08:14:31;;;;;;;4.80;4.40;;;13.70;57.50;;;;;;5014313;28;20453;-57
2022/04/20 08:16:58;;;;;;;7.50;4.30;;;13.60;57.30;;;;;;5014247;28;21013;-57
2022/04/20 08:19:26;;;;;;;5.90;3.70;;;14.30;56.80;;;;;;5011360;28;20536;-52
2022/04/20 08:21:53;;;;;;;3.53;3.23;;;17.20;55.80;;;;;;4994016;28;20543;-58
2022/04/20 08:24:21;;;;;;;4.50;4.10;;;17.30;53.80;;;;;;4997834;28;20479;-52
2022/04/20 08:26:49;;;;;;;6.33;3.80;;;16.60;53.70;;;;;;5014415;28;20459;-63
2022/04/20 08:29:16;;;;;;;3.93;3.57;;;16.70;53.60;;;;;;5009002;28;20559;-55
2022/04/20 08:31:44;;;;;;;4.07;3.70;;;17.70;53.90;;;;;;4993905;28;20502;-57
2022/04/20 08:34:11;;;;;;;3.90;3.60;;;18.70;51.90;;;;;;4994310;28;20452;-56
2022/04/20 08:36:38;;;;;;;3.83;3.53;;;19.10;52.30;;;;;;4994548;28;20448;-53
2022/04/20 08:39:05;;;;;;;4.00;3.70;;;20.30;51.40;;;;;;4997066;28;20467;-55
2022/04/20 08:41:34;;;;;;;3.83;3.53;;;21.10;49.10;;;;;;5005218;28;20457;-57
2022/04/20 08:44:05;;;;;;;4.00;3.60;;;20.30;49.60;;;;;;4997093;28;20480;-55
2022/04/20 08:46:37;;;;;;;3.43;2.90;;;18.40;49.40;;;;;;4994649;28;20511;-53
2022/04/20 08:49:05;;;;;;;4.53;3.03;;;18.40;49.90;;;;;;4995086;28;20483;-52
2022/04/20 08:52:37;;;;;;;5.67;4.50;;;18.60;50.70;;;;;;4994433;28;20487;-60
2022/04/20 08:54:22;;;;;;;3.57;3.27;;;17.90;50.50;;;;;;4997615;28;20495;-54
2022/04/20 08:59:37;;;;;;;7.07;3.17;;;19.50;49.60;;;;;;5006423;28;20451;-60
2022/04/20 09:02:04;;;;;;;3.50;3.17;;;20.60;49.10;;;;;;4994518;28;20438;-58
2022/04/20 09:04:31;;;;;;;4.20;3.80;;;21.20;47.90;;;;;;4995323;28;20465;-61
2022/04/20 09:07:03;;;;;;;4.97;4.40;;;20.00;46.30;;;;;;4993395;28;20447;-62
2022/04/20 09:09:33;;;;;;;4.47;3.73;;;19.30;47.40;;;;;;4993988;28;20479;-57
2022/04/20 09:12:00;;;;;;;11.70;3.50;;;18.70;47.50;;;;;;5008100;28;21005;-55
2022/04/20 09:14:39;;;;;;;4.17;3.60;;;18.10;46.50;;;;;;5006537;28;20519;-61
2022/04/20 09:17:12;;;;;;;3.60;3.30;;;18.40;47.00;;;;;;4993938;28;20436;-56
2022/04/20 09:19:40;;;;;;;5.70;3.47;;;18.30;47.50;;;;;;4994616;28;20448;-58
2022/04/20 09:22:24;;;;;;;4.57;4.17;;;19.30;46.10;;;;;;5008835;28;20880;-60
2022/04/20 09:24:59;;;;;;;4.30;3.43;;;19.00;45.70;;;;;;4998840;28;20441;-61
2022/04/20 09:27:30;;;;;;;3.20;2.90;;;18.60;45.40;;;;;;5010695;28;20453;-58
2022/04/20 09:29:58;;;;;;;3.30;3.00;;;18.70;46.50;;;;;;4993728;28;20459;-60
2022/04/20 09:32:37;;;;;;;4.20;3.20;;;19.30;45.30;;;;;;4999515;28;20494;-59
2022/04/20 09:35:08;;;;;;;5.00;3.87;;;20.40;44.60;;;;;;4993815;28;20440;-58
2022/04/20 09:37:37;;;;;;;4.40;3.40;;;20.10;43.00;;;;;;4993439;28;20554;-57
2022/04/20 09:40:06;;;;;;;3.30;3.10;;;19.40;44.40;;;;;;4993647;28;20531;-57
2022/04/20 09:42:35;;;;;;;4.63;3.60;;;18.80;44.60;;;;;;5006498;28;20448;-57
2022/04/20 09:45:04;;;;;;;4.93;4.30;;;18.70;45.10;;;;;;4993750;28;20840;-60
2022/04/20 09:50:23;;;;;;;3.03;2.60;;;18.10;45.80;;;;;;4993072;28;20451;-60
2022/04/20 09:52:54;;;;;;;3.50;3.20;;;19.30;43.70;;;;;;4993566;28;21001;-56
2022/04/20 09:55:29;;;;;;;3.93;3.10;;;19.40;42.70;;;;;;5011525;28;20463;-61
2022/04/20 09:58:13;;;;;;;3.53;3.23;;;18.80;42.80;;;;;;5004162;28;20483;-59
2022/04/20 10:00:41;;;;;;;3.57;3.27;;;19.70;43.20;;;;;;4996889;28;20447;-57
2022/04/20 10:03:09;;;;;;;3.67;3.37;;;19.40;42.10;;;;;;5002758;28;20546;-59
2022/04/20 10:05:38;;;;;;;6.80;3.50;;;19.40;42.40;;;;;;5013114;28;20447;-55
2022/04/20 10:08:07;;;;;;;4.93;3.77;;;;;;;;;;5006976;28;20479;-58
2022/04/20 10:10:35;;;;;;;3.13;2.83;;;20.30;41.50;;;;;;4993196;28;20506;-58
2022/04/20 10:13:04;;;;;;;4.10;3.60;;;20.60;42.20;;;;;;4992298;28;20523;-60
2022/04/20 10:18:19;;;;;;;4.07;3.30;;;20.80;42.50;;;;;;5013275;28;20597;-56
2022/04/20 10:20:50;;;;;;;4.00;3.07;;;20.50;41.20;;;;;;5015582;28;20446;-57
2022/04/20 10:23:20;;;;;;;4.07;3.73;;;20.50;41.90;;;;;;4996602;28;20436;-58
2022/04/20 10:25:49;;;;;;;5.63;3.90;;;19.80;40.90;;;;;;4997069;28;20464;-58
2022/04/20 10:28:24;;;;;;;3.60;3.30;;;18.10;41.90;;;;;;4996249;28;20475;-54
2022/04/20 10:34:21;;;;;;;3.60;3.30;;;19.50;52.70;;;;;;4995344;28;20559;-57
2022/04/20 10:36:59;;;;;;;4.00;3.60;;;18.70;42.20;;;;;;4996377;28;20487;-61
2022/04/20 10:39:29;;;;;;;4.20;3.80;;;18.30;42.50;;;;;;5013065;28;20973;-54
2022/04/20 10:42:19;;;;;;;4.80;4.23;;;18.50;43.10;;;;;;5016566;28;20445;-58
2022/04/20 10:45:07;;;;;;;5.00;4.00;;;18.60;43.10;;;;;;5006066;28;20454;-58
2022/04/20 10:47:36;;;;;;;4.50;3.70;;;18.80;42.40;;;;;;4996448;28;20464;-55
2022/04/20 10:50:18;;;;;;;3.83;3.53;;;19.60;42.30;;;;;;4996737;28;20483;-57
2022/04/20 10:52:50;;;;;;;5.10;3.90;;;;;;;;;;4996173;28;20839;-55
2022/04/20 10:55:17;;;;;;;3.43;3.10;;;19.10;42.60;;;;;;5010346;28;20463;-56
2022/04/20 10:57:45;;;;;;;9.27;4.07;;;20.10;42.40;;;;;;5013743;28;20471;-55
2022/04/20 11:00:27;;;;;;;6.70;4.27;;;20.60;41.40;;;;;;5015604;28;20505;-58
2022/04/20 11:02:55;;;;;;;3.40;3.03;;;20.20;40.30;;;;;;5007612;28;20867;-54
2022/04/20 11:05:24;;;;;;;4.33;3.50;;;20.50;41.20;;;;;;5009505;28;20533;-55
2022/04/20 11:08:14;;;;;;;4.40;3.70;;;19.90;39.60;;;;;;5013194;28;20562;-49
2022/04/20 11:10:42;;;;;;;6.17;2.90;;;19.20;40.10;;;;;;4996423;28;20446;-52
2022/04/20 11:19:09;;;;;;;4.10;3.70;;;20.70;40.10;;;;;;5005385;28;20462;-58
2022/04/20 11:21:37;;;;;;;8.60;3.47;;;;;;;;;;5015428;28;20427;-56
2022/04/20 11:24:07;;;;;;;4.73;3.30;;;20.10;41.20;;;;;;5013645;28;20474;-61
2022/04/20 11:26:39;;;;;;;6.87;3.07;;;19.50;40.00;;;;;;5015825;28;20459;-54
2022/04/20 11:29:11;;;;;;;3.73;3.30;;;19.70;40.40;;;;;;5003659;28;20482;-55
2022/04/20 11:31:40;;;;;;;4.27;3.87;;;20.10;41.00;;;;;;4995138;28;20850;-58
2022/04/20 11:34:07;;;;;;;3.80;3.50;;;;;;;;;;4995185;28;20480;-56
2022/04/20 11:36:38;;;;;;;3.83;3.43;;;19.90;39.20;;;;;;5000129;28;20443;-57
2022/04/20 11:39:08;;;;;;;3.83;3.40;;;19.40;39.90;;;;;;5013994;28;20470;-57
2022/04/20 11:41:35;;;;;;;4.10;3.33;;;19.90;39.60;;;;;;5015074;28;20906;-57
2022/04/20 11:44:03;;;;;;;6.30;3.80;;;19.60;39.40;;;;;;5011509;28;20463;-57
2022/04/20 11:46:34;;;;;;;4.70;3.83;;;19.10;39.70;;;;;;4995484;28;20491;-59
2022/04/20 11:49:01;;;;;;;4.00;3.70;;;19.40;40.10;;;;;;4995300;28;20555;-59
2022/04/20 11:51:31;;;;;;;3.73;3.43;;;19.50;40.60;;;;;;4996581;28;20475;-58
2022/04/20 11:53:58;;;;;;;5.03;3.80;;;19.50;40.00;;;;;;5010191;28;20451;-60
2022/04/20 11:56:40;;;;;;;3.23;3.03;;;19.80;39.30;;;;;;5013982;28;20469;-61
2022/04/20 11:59:09;;;;;;;5.17;3.90;;;20.00;39.90;;;;;;5012868;28;20471;-59
2022/04/20 12:01:38;;;;;;;3.90;3.60;;;19.70;38.60;;;;;;5014048;28;20648;-59
2022/04/20 12:04:12;;;;;;;3.60;3.30;;;18.80;39.40;;;;;;5014869;28;20454;-56
2022/04/20 12:06:46;;;;;;;7.10;4.43;;;19.70;40.10;;;;;;5015012;28;20453;-58
2022/04/20 12:09:14;;;;;;;3.87;3.57;;;20.10;40.10;;;;;;5011529;28;20812;-53
2022/04/20 12:11:43;;;;;;;4.33;4.03;;;19.90;39.60;;;;;;4994958;28;20578;-57
2022/04/20 12:14:12;;;;;;;4.60;4.10;;;20.00;38.80;;;;;;4995314;28;20479;-57
2022/04/20 12:16:40;;;;;;;4.43;3.90;;;19.30;39.90;;;;;;4995037;28;20985;-56
2022/04/20 12:19:08;;;;;;;5.23;3.93;;;19.80;40.10;;;;;;4995769;28;20534;-55
2022/04/20 12:21:41;;;;;;;5.73;3.73;;;19.20;39.80;;;;;;4997785;28;20451;-58
2022/04/20 12:24:18;;;;;;;4.87;3.90;;;19.50;39.30;;;;;;4996927;28;20466;-55
2022/04/20 12:26:47;;;;;;;4.53;4.23;;;19.10;38.60;;;;;;4995042;28;20462;-55
2022/04/20 12:29:18;;;;;;;4.00;3.70;;;18.30;40.60;;;;;;4994773;28;20468;-57
2022/04/20 12:31:49;;;;;;;3.93;3.63;;;19.00;40.70;;;;;;4995945;28;20526;-55
2022/04/20 12:34:18;;;;;;;8.33;3.50;;;19.00;39.80;;;;;;5014191;28;20479;-50
2022/04/20 12:36:53;;;;;;;4.20;3.80;;;19.70;40.40;;;;;;5004518;28;20451;-53
2022/04/20 12:39:25;;;;;;;4.50;2.93;;;19.80;39.50;;;;;;5013801;28;20869;-53
2022/04/20 12:41:55;;;;;;;6.03;3.40;;;20.00;39.80;;;;;;5013149;28;20513;-53
2022/04/20 12:44:46;;;;;;;4.23;3.87;;;20.20;40.20;;;;;;5008424;28;20455;-51
2022/04/20 12:47:39;;;;;;;4.03;3.63;;;20.30;39.40;;;;;;5005324;28;20444;-50
2022/04/20 12:50:25;;;;;;;10.00;3.83;;;19.70;37.10;;;;;;4994645;28;20524;-50
2022/04/20 12:52:59;;;;;;;3.80;3.50;;;20.10;39.60;;;;;;4994621;28;20475;-50
2022/04/20 13:02:01;;;;;;;4.10;3.73;;;19.90;38.60;;;;;;4994246;28;20491;-50
2022/04/20 13:04:19;;;;;;;4.63;4.20;;;19.60;38.60;;;;;;4994098;28;20965;-50
2022/04/20 13:06:46;;;;;;;4.27;3.87;;;19.40;38.40;;;;;;4994581;28;20447;-51
2022/04/20 13:09:13;;;;;;;4.20;3.90;;;19.80;40.00;;;;;;4994291;28;20472;-50
2022/04/20 13:11:40;;;;;;;4.20;3.00;;;19.40;39.40;;;;;;4994383;28;20869;-51
2022/04/20 13:14:10;;;;;;;4.10;3.80;;;19.40;40.60;;;;;;4994086;28;20915;-51
2022/04/20 13:16:37;;;;;;;4.67;4.27;;;19.50;38.90;;;;;;4994432;28;20479;-51
2022/04/20 13:19:05;;;;;;;4.37;3.30;;;19.80;39.00;;;;;;4993855;28;20468;-51
2022/04/20 13:21:32;;;;;;;3.70;3.40;;;19.60;39.70;;;;;;4994196;28;20597;-51
2022/04/20 13:23:59;;;;;;;4.00;3.70;;;19.40;39.60;;;;;;4994126;28;20454;-51
2022/04/20 13:29:14;;;;;;;3.60;3.30;;;19.10;38.40;;;;;;4993923;28;20451;-51
2022/04/20 13:31:41;;;;;;;3.70;3.40;;;19.20;38.30;;;;;;4993751;28;20991;-51
2022/04/20 13:34:08;;;;;;;5.10;3.50;;;18.90;38.30;;;;;;4993430;28;21009;-51
2022/04/20 13:36:35;;;;;;;3.30;3.00;;;18.80;38.80;;;;;;4993944;28;20806;-51
2022/04/20 13:39:02;;;;;;;3.13;2.90;;;19.60;39.60;;;;;;4993667;28;20468;-51
2022/04/20 13:41:30;;;;;;;3.77;3.47;;;19.90;39.00;;;;;;4993597;28;20458;-50
2022/04/20 13:43:59;;;;;;;4.00;3.23;;;19.50;38.00;;;;;;4994093;28;20448;-50
2022/04/20 13:46:27;;;;;;;3.60;3.30;;;19.80;38.60;;;;;;4994218;28;20459;-50
2022/04/20 13:48:54;;;;;;;3.83;3.00;;;19.40;38.10;;;;;;4993773;28;20548;-49
2022/04/20 13:51:22;;;;;;;3.90;3.60;;;19.60;38.40;;;;;;4993706;28;20452;-50